Time;durP1;ratioP1;P1;durP2;ratioP2;P2;SDS_P1;SDS_P2;PMS_P1;PMS_P2;Temp;Humidity;BMP_temperature;BMP_pressure;BME280_temperature;BME280_humidity;BME280_pressure;Samples;Min_cycle;Max_cycle;Signal;HPM_P1;HPM_P2
2021/06/29 00:01:04;;;;;;;8.63;5.63;;;665.60;1817.60;;;;;;5057935;28;20070;-80
2021/06/29 00:03:30;;;;;;;11.35;5.13;;;665.60;1817.60;;;;;;5064809;28;20368;-80
2021/06/29 00:05:56;;;;;;;14.27;5.70;;;640.90;1792.00;;;;;;5066876;28;20475;-79
2021/06/29 00:08:22;;;;;;;12.15;6.15;;;640.90;1817.60;;;;;;5063274;28;20100;-79
2021/06/29 00:10:48;;;;;;;9.00;5.70;;;640.80;1792.00;;;;;;5055380;28;20025;-79
2021/06/29 00:13:14;;;;;;;9.77;4.72;;;640.80;1817.60;;;;;;5062186;28;20029;-79
2021/06/29 00:15:40;;;;;;;10.95;4.47;;;640.80;1817.60;;;;;;5060155;28;20025;-80
2021/06/29 00:18:06;;;;;;;8.75;5.35;;;640.80;1843.20;;;;;;5065064;28;20501;-80
2021/06/29 00:20:33;;;;;;;6.90;4.25;;;640.80;1843.20;;;;;;5066647;28;20024;-79
2021/06/29 00:22:59;;;;;;;7.60;5.03;;;640.70;1868.80;;;;;;5060827;28;20036;-79
2021/06/29 00:25:25;;;;;;;7.65;5.07;;;640.60;1868.80;;;;;;5071128;28;20090;-80
2021/06/29 00:27:50;;;;;;;7.68;4.85;;;640.50;1868.80;;;;;;5065191;28;20029;-80
2021/06/29 00:30:17;;;;;;;8.75;4.78;;;640.40;1894.40;;;;;;5070126;28;20471;-80
2021/06/29 00:32:43;;;;;;;6.85;4.97;;;640.40;1894.40;;;;;;5071619;28;20020;-79
2021/06/29 00:35:10;;;;;;;7.60;5.50;;;640.30;1894.40;;;;;;5057082;28;20032;-80
2021/06/29 00:37:36;;;;;;;8.07;5.30;;;640.20;1920.00;;;;;;5071479;28;20395;-79
2021/06/29 00:40:03;;;;;;;6.45;4.53;;;640.20;1894.40;;;;;;5054350;28;20032;-79
2021/06/29 00:42:29;;;;;;;5.80;4.35;;;640.10;1920.00;;;;;;5060675;28;20032;-79
2021/06/29 00:44:55;;;;;;;8.50;4.80;;;640.10;1920.00;;;;;;5070071;28;20107;-80
2021/06/29 00:47:21;;;;;;;5.47;4.15;;;640.00;1920.00;;;;;;5059713;28;20028;-79
2021/06/29 00:49:47;;;;;;;8.90;4.57;;;640.00;1920.00;;;;;;5059171;28;20028;-79
2021/06/29 00:52:15;;;;;;;11.05;5.50;;;615.30;1945.60;;;;;;5052640;28;20021;-79
2021/06/29 00:54:41;;;;;;;8.80;5.05;;;640.00;1945.60;;;;;;5062508;28;20421;-80
2021/06/29 00:57:11;;;;;;;8.40;4.90;;;615.30;1945.60;;;;;;5071298;28;20364;-80
2021/06/29 00:59:39;;;;;;;10.02;5.57;;;615.30;1945.60;;;;;;5062036;28;20052;-80
2021/06/29 01:02:06;;;;;;;9.70;6.65;;;615.30;1945.60;;;;;;5066902;28;20052;-80
2021/06/29 01:04:32;;;;;;;9.98;6.53;;;615.20;1945.60;;;;;;5059801;28;20166;-80
2021/06/29 01:06:58;;;;;;;9.32;6.45;;;615.10;1971.20;;;;;;5070343;28;20108;-80
2021/06/29 01:09:25;;;;;;;9.07;7.13;;;615.00;1971.20;;;;;;5051355;28;20025;-80
2021/06/29 01:11:51;;;;;;;9.70;7.30;;;615.00;1996.80;;;;;;5064921;28;20107;-80
2021/06/29 01:14:17;;;;;;;12.60;10.18;;;615.00;1971.20;;;;;;5056971;28;20158;-79
2021/06/29 01:16:44;;;;;;;9.88;7.07;;;614.90;1996.80;;;;;;5060998;28;20032;-79
2021/06/29 01:19:18;;;;;;;11.70;8.13;;;614.90;1996.80;;;;;;5068304;28;20021;-79
2021/06/29 01:21:46;;;;;;;11.50;6.88;;;614.80;1996.80;;;;;;5061023;28;20135;-79
2021/06/29 01:24:16;;;;;;;9.80;7.72;;;614.80;2022.40;;;;;;5052790;28;20029;-79
2021/06/29 01:26:48;;;;;;;10.80;7.20;;;614.80;2022.40;;;;;;5035347;28;20443;-80
2021/06/29 01:29:14;;;;;;;13.98;8.50;;;614.70;2022.40;;;;;;5044797;28;20080;-80
2021/06/29 01:31:40;;;;;;;10.82;8.13;;;614.70;2022.40;;;;;;5035358;28;20799;-80
2021/06/29 01:34:06;;;;;;;10.82;7.93;;;614.70;2048.00;;;;;;5052066;28;20116;-79
2021/06/29 01:36:36;;;;;;;13.88;8.73;;;614.70;2048.00;;;;;;5034563;28;20120;-79
2021/06/29 01:39:05;;;;;;;11.60;9.15;;;614.60;2048.00;;;;;;5040752;28;20035;-80
2021/06/29 01:41:31;;;;;;;11.23;9.00;;;614.50;2073.60;;;;;;5046217;28;20028;-80
2021/06/29 01:44:01;;;;;;;11.68;8.38;;;614.50;2073.60;;;;;;5050759;28;20398;-80
2021/06/29 01:46:31;;;;;;;12.95;8.55;;;614.50;2073.60;;;;;;5041964;28;20372;-80
2021/06/29 01:48:57;;;;;;;11.05;8.27;;;614.40;2099.20;;;;;;5054386;28;20021;-80
2021/06/29 01:51:23;;;;;;;12.50;8.60;;;614.40;2099.20;;;;;;5042429;28;20113;-80
2021/06/29 01:53:52;;;;;;;13.75;8.88;;;614.50;2099.20;;;;;;5041209;28;20384;-80
2021/06/29 01:56:22;;;;;;;12.77;8.30;;;614.50;2099.20;;;;;;5054647;28;20032;-80
2021/06/29 01:58:54;;;;;;;13.93;9.20;;;614.50;2099.20;;;;;;5041987;28;20036;-80
2021/06/29 02:01:21;;;;;;;14.13;8.88;;;614.40;2124.80;;;;;;5045311;28;20025;-79
2021/06/29 02:03:48;;;;;;;13.85;8.48;;;614.50;2124.80;;;;;;5050625;28;20056;-79
2021/06/29 02:06:15;;;;;;;12.20;7.93;;;614.40;2124.80;;;;;;5062401;28;20030;-80
2021/06/29 02:08:41;;;;;;;12.60;8.35;;;614.40;2124.80;;;;;;5049308;28;20024;-80
2021/06/29 02:11:06;;;;;;;12.00;7.35;;;614.40;2124.80;;;;;;5048639;28;20021;-80
2021/06/29 02:13:32;;;;;;;15.68;8.88;;;614.40;2124.80;;;;;;5047498;28;20074;-80
2021/06/29 02:16:00;;;;;;;14.38;8.77;;;614.40;2150.40;;;;;;5054242;28;20810;-80
2021/06/29 02:18:26;;;;;;;15.88;9.23;;;589.70;2150.40;;;;;;5042797;28;20045;-81
2021/06/29 02:20:52;;;;;;;13.13;8.05;;;589.70;2124.80;;;;;;5048381;28;20400;-81
2021/06/29 02:23:18;;;;;;;13.68;8.30;;;589.70;2150.40;;;;;;5035536;28;20032;-81
2021/06/29 02:25:44;;;;;;;15.15;9.57;;;589.70;2150.40;;;;;;5065009;28;20101;-81
2021/06/29 02:28:10;;;;;;;14.48;8.45;;;614.40;2150.40;;;;;;5057393;28;20029;-81
2021/06/29 02:30:36;;;;;;;12.18;7.65;;;589.70;2150.40;;;;;;5077127;28;20058;-80
2021/06/29 02:33:03;;;;;;;13.38;7.75;;;589.70;2176.00;;;;;;5061777;28;20471;-80
2021/06/29 02:35:28;;;;;;;13.05;8.32;;;589.70;2176.00;;;;;;5075149;28;20029;-81
2021/06/29 02:37:55;;;;;;;14.02;8.13;;;589.70;2176.00;;;;;;5075470;28;20375;-80
2021/06/29 02:40:21;;;;;;;14.23;9.10;;;589.60;2176.00;;;;;;5075023;28;20440;-80
2021/06/29 02:42:47;;;;;;;13.30;8.07;;;589.60;2176.00;;;;;;5075279;28;20483;-80
2021/06/29 02:45:18;;;;;;;12.30;9.13;;;589.60;2201.60;;;;;;5074595;28;20032;-80
2021/06/29 02:47:45;;;;;;;18.35;10.30;;;589.60;2201.60;;;;;;5077469;28;20538;-80
2021/06/29 02:50:11;;;;;;;15.27;9.45;;;589.60;2201.60;;;;;;5060249;28;20028;-80
2021/06/29 02:52:37;;;;;;;13.30;8.85;;;589.60;2201.60;;;;;;5074741;28;20024;-80
2021/06/29 02:55:07;;;;;;;14.35;9.23;;;589.50;2227.20;;;;;;5071112;28;20531;-79
2021/06/29 02:57:33;;;;;;;15.80;10.45;;;589.40;2227.20;;;;;;5063565;28;20546;-80
2021/06/29 02:59:58;;;;;;;14.80;9.38;;;589.30;2252.80;;;;;;5076766;28;20158;-79
2021/06/29 03:02:24;;;;;;;14.45;9.73;;;589.30;2252.80;;;;;;5074142;28;20055;-80
2021/06/29 03:04:50;;;;;;;13.27;8.23;;;589.30;2252.80;;;;;;5071894;28;20096;-80
2021/06/29 03:07:16;;;;;;;12.85;9.05;;;589.30;2252.80;;;;;;5087641;28;20028;-80
2021/06/29 03:09:41;;;;;;;11.13;7.82;;;589.30;2252.80;;;;;;5070951;28;20024;-80
2021/06/29 03:12:08;;;;;;;10.73;8.45;;;589.30;2278.40;;;;;;5081372;28;20051;-81
2021/06/29 03:14:39;;;;;;;11.38;8.23;;;589.30;2278.40;;;;;;5081392;28;20027;-81
2021/06/29 03:17:05;;;;;;;12.23;7.95;;;589.30;2278.40;;;;;;5074610;28;20021;-82
2021/06/29 03:19:32;;;;;;;15.35;9.32;;;589.40;2278.40;;;;;;5074403;28;20033;-81
2021/06/29 03:21:58;;;;;;;14.50;8.68;;;589.40;2278.40;;;;;;5085830;28;20031;-79
2021/06/29 03:24:24;;;;;;;12.18;8.88;;;589.50;2278.40;;;;;;5078815;28;20026;-79
2021/06/29 03:26:50;;;;;;;11.25;7.63;;;589.60;2278.40;;;;;;5067452;28;20127;-79
2021/06/29 03:29:16;;;;;;;13.13;7.57;;;589.60;2278.40;;;;;;5072696;28;20035;-79
2021/06/29 03:31:41;;;;;;;10.15;7.43;;;589.60;2278.40;;;;;;5092938;28;20091;-79
2021/06/29 03:34:07;;;;;;;15.30;8.70;;;589.60;2278.40;;;;;;5083774;28;20541;-79
2021/06/29 03:36:33;;;;;;;14.18;8.27;;;589.50;2278.40;;;;;;5090651;28;20031;-78
2021/06/29 03:38:59;;;;;;;13.10;7.90;;;589.60;2278.40;;;;;;5094368;28;20103;-78
2021/06/29 03:41:25;;;;;;;15.52;9.32;;;589.60;2278.40;;;;;;5093425;28;20035;-78
2021/06/29 03:43:51;;;;;;;17.08;9.10;;;589.70;2278.40;;;;;;5080661;28;20020;-79
2021/06/29 03:46:17;;;;;;;12.43;7.97;;;614.50;2278.40;;;;;;5070581;28;20085;-79
2021/06/29 03:48:43;;;;;;;12.60;7.85;;;614.60;2252.80;;;;;;5070366;28;20093;-80
2021/06/29 03:51:08;;;;;;;15.40;8.40;;;614.50;2252.80;;;;;;5075864;28;20020;-79
2021/06/29 03:53:34;;;;;;;14.85;7.90;;;614.60;2252.80;;;;;;5073264;28;20024;-79
2021/06/29 03:56:00;;;;;;;13.25;8.23;;;614.70;2252.80;;;;;;5080111;28;20572;-78
2021/06/29 03:58:26;;;;;;;10.50;7.95;;;614.70;2252.80;;;;;;5075658;28;20039;-79
2021/06/29 04:00:51;;;;;;;20.75;8.02;;;614.90;2252.80;;;;;;5075285;28;20034;-79
2021/06/29 04:03:17;;;;;;;14.45;8.82;;;614.90;2252.80;;;;;;5075485;28;20115;-80
2021/06/29 04:05:43;;;;;;;11.73;7.85;;;614.90;2252.80;;;;;;5070773;28;20028;-79
2021/06/29 04:08:08;;;;;;;13.30;8.02;;;615.10;2227.20;;;;;;5066083;28;20438;-79
2021/06/29 04:10:34;;;;;;;16.55;7.72;;;615.20;2227.20;;;;;;5078552;28;20016;-79
2021/06/29 04:13:00;;;;;;;11.32;7.28;;;615.20;2227.20;;;;;;5084658;28;20021;-79
2021/06/29 04:15:26;;;;;;;13.55;7.50;;;615.30;2227.20;;;;;;5075343;28;20024;-81
2021/06/29 04:17:52;;;;;;;11.95;7.47;;;615.30;2227.20;;;;;;5085112;28;20534;-81
2021/06/29 04:20:18;;;;;;;16.58;7.97;;;640.10;2201.60;;;;;;5057538;28;20487;-81
2021/06/29 04:22:44;;;;;;;15.90;7.65;;;640.30;2201.60;;;;;;5077526;28;20025;-81
2021/06/29 04:25:10;;;;;;;27.73;8.52;;;640.50;2176.00;;;;;;5074975;28;20486;-81
2021/06/29 04:27:36;;;;;;;22.15;9.55;;;640.60;2176.00;;;;;;5078144;28;20028;-81
2021/06/29 04:30:05;;;;;;;15.13;7.28;;;640.80;2150.40;;;;;;5062152;28;20168;-79
2021/06/29 04:32:30;;;;;;;15.20;7.28;;;665.70;2150.40;;;;;;5081750;28;20020;-78
2021/06/29 04:34:56;;;;;;;12.30;7.35;;;665.90;2150.40;;;;;;5072471;28;20383;-79
2021/06/29 04:37:22;;;;;;;8.68;6.90;;;666.00;2124.80;;;;;;5082398;28;20387;-79
2021/06/29 04:39:48;;;;;;;8.85;6.72;;;666.20;2124.80;;;;;;5074791;28;20024;-79
2021/06/29 04:42:14;;;;;;;10.05;7.00;;;666.50;2099.20;;;;;;5074882;28;20077;-80
2021/06/29 04:44:40;;;;;;;8.63;6.15;;;691.20;2099.20;;;;;;5092983;28;20036;-80
2021/06/29 04:47:07;;;;;;;8.75;6.55;;;691.40;2073.60;;;;;;5073312;28;20111;-79
2021/06/29 04:49:33;;;;;;;7.55;6.32;;;691.70;2048.00;;;;;;5066114;28;20020;-80
2021/06/29 04:51:59;;;;;;;9.15;6.63;;;691.80;2048.00;;;;;;5060323;28;20039;-80
2021/06/29 04:54:25;;;;;;;14.48;6.65;;;692.00;2022.40;;;;;;5091582;28;20059;-80
2021/06/29 04:56:52;;;;;;;15.30;6.80;;;692.10;2022.40;;;;;;5089976;28;20024;-80
2021/06/29 04:59:18;;;;;;;13.82;7.13;;;716.80;2022.40;;;;;;5062144;28;20028;-80
2021/06/29 05:01:43;;;;;;;20.77;7.47;;;716.90;2022.40;;;;;;5091828;28;20072;-80
2021/06/29 05:04:09;;;;;;;15.20;7.38;;;717.10;2022.40;;;;;;5086634;28;20046;-81
2021/06/29 05:06:35;;;;;;;13.32;6.50;;;717.20;1996.80;;;;;;5056548;28;20032;-80
2021/06/29 05:09:01;;;;;;;12.05;6.95;;;717.50;1971.20;;;;;;5076251;28;20024;-80
2021/06/29 05:11:27;;;;;;;14.35;8.43;;;717.60;1971.20;;;;;;5074291;28;20081;-79
2021/06/29 05:13:52;;;;;;;24.00;7.72;;;717.70;1971.20;;;;;;5071016;28;20024;-80
2021/06/29 05:16:18;;;;;;;24.05;7.05;;;742.50;1971.20;;;;;;5062296;28;20032;-80
2021/06/29 05:18:44;;;;;;;32.63;9.85;;;742.60;1971.20;;;;;;5074667;28;20024;-80
2021/06/29 05:21:10;;;;;;;18.48;8.70;;;742.80;1945.60;;;;;;5073863;28;20024;-80
2021/06/29 05:23:35;;;;;;;28.90;8.43;;;743.00;1945.60;;;;;;5078274;28;20025;-80
2021/06/29 05:26:01;;;;;;;18.25;8.52;;;743.10;1920.00;;;;;;5088566;28;20044;-80
2021/06/29 05:28:27;;;;;;;20.42;6.65;;;743.20;1894.40;;;;;;5079023;28;20086;-80
2021/06/29 05:30:55;;;;;;;12.80;6.45;;;768.00;1894.40;;;;;;5079932;28;20017;-79
2021/06/29 05:33:21;;;;;;;9.90;6.57;;;768.20;1868.80;;;;;;5072042;28;20020;-79
2021/06/29 05:35:47;;;;;;;15.48;6.15;;;768.40;1843.20;;;;;;5064361;28;20020;-80
2021/06/29 05:38:12;;;;;;;11.95;6.28;;;768.40;1843.20;;;;;;5076060;28;20033;-79
2021/06/29 05:40:38;;;;;;;14.10;5.68;;;768.70;1817.60;;;;;;5080510;28;20035;-80
2021/06/29 05:43:04;;;;;;;10.52;5.55;;;768.70;1817.60;;;;;;5059839;28;20063;-80
2021/06/29 05:45:30;;;;;;;10.70;6.03;;;793.60;1817.60;;;;;;5090828;28;20115;-80
2021/06/29 05:47:56;;;;;;;10.57;6.10;;;793.80;1817.60;;;;;;5063047;28;20071;-80
2021/06/29 05:50:22;;;;;;;8.35;5.95;;;793.80;1817.60;;;;;;5086279;28;20103;-79
2021/06/29 05:52:48;;;;;;;8.77;5.95;;;794.10;1792.00;;;;;;5071672;28;20100;-80
2021/06/29 05:55:15;;;;;;;8.95;5.53;;;794.10;1792.00;;;;;;5056790;28;20097;-79
2021/06/29 05:57:41;;;;;;;6.00;5.07;;;794.30;1792.00;;;;;;5065949;28;20025;-79
2021/06/29 06:00:13;;;;;;;13.10;10.07;;;794.40;1766.40;;;;;;5068631;28;20020;-79
2021/06/29 06:02:39;;;;;;;7.38;5.35;;;819.20;1766.40;;;;;;5082618;28;20021;-79
2021/06/29 06:05:09;;;;;;;9.18;6.55;;;819.40;1740.80;;;;;;5058297;28;20383;-79
2021/06/29 06:07:36;;;;;;;8.88;6.95;;;819.70;1740.80;;;;;;5063763;28;20032;-79
2021/06/29 06:10:06;;;;;;;13.05;6.95;;;819.90;1715.20;;;;;;5070759;28;20028;-79
2021/06/29 06:12:33;;;;;;;10.48;4.97;;;820.10;1715.20;;;;;;5065757;28;20024;-80
2021/06/29 06:14:59;;;;;;;6.68;5.40;;;844.90;1715.20;;;;;;5073620;28;20101;-80
2021/06/29 06:17:28;;;;;;;9.13;5.47;;;845.00;1689.60;;;;;;5072938;28;20494;-81
2021/06/29 06:19:54;;;;;;;8.02;4.47;;;845.10;1689.60;;;;;;5063248;28;20028;-81
2021/06/29 06:22:21;;;;;;;10.38;4.93;;;845.20;1664.00;;;;;;5071853;28;20036;-81
2021/06/29 06:24:47;;;;;;;6.35;5.18;;;845.30;1664.00;;;;;;5081347;28;20391;-81
2021/06/29 06:27:14;;;;;;;5.55;4.72;;;845.30;1664.00;;;;;;5072109;28;20036;-81
2021/06/29 06:29:40;;;;;;;9.73;5.13;;;845.40;1638.40;;;;;;5065983;28;20020;-81
2021/06/29 06:32:06;;;;;;;9.02;5.70;;;845.50;1638.40;;;;;;5079140;28;20043;-80
2021/06/29 06:34:33;;;;;;;9.60;6.38;;;870.40;1638.40;;;;;;5083662;28;20070;-80
2021/06/29 06:36:59;;;;;;;7.28;4.80;;;870.40;1612.80;;;;;;5065741;28;20028;-80
2021/06/29 06:39:24;;;;;;;5.47;4.63;;;870.50;1612.80;;;;;;5083170;28;20533;-80
2021/06/29 06:41:50;;;;;;;7.78;4.03;;;870.60;1587.20;;;;;;5071738;28;20035;-80
2021/06/29 06:44:16;;;;;;;5.32;4.82;;;870.60;1587.20;;;;;;5084201;28;20031;-80
2021/06/29 06:46:42;;;;;;;7.28;4.30;;;870.90;1561.60;;;;;;5070154;28;20153;-81
2021/06/29 06:49:07;;;;;;;7.80;4.10;;;871.10;1536.00;;;;;;5070648;28;20016;-81
2021/06/29 06:51:33;;;;;;;5.93;4.53;;;896.00;1536.00;;;;;;5073097;28;20071;-80
2021/06/29 06:53:59;;;;;;;6.63;4.78;;;896.20;1510.40;;;;;;5069885;28;20035;-81
2021/06/29 06:56:25;;;;;;;6.82;4.53;;;896.50;1484.80;;;;;;5067600;28;20028;-80
2021/06/29 06:58:50;;;;;;;6.43;4.60;;;896.50;1459.20;;;;;;5084845;28;20110;-81
2021/06/29 07:01:16;;;;;;;6.43;4.60;;;896.70;1433.60;;;;;;5075542;28;20042;-82
2021/06/29 07:03:43;;;;;;;12.13;4.50;;;896.70;1433.60;;;;;;5086573;28;20024;-81
2021/06/29 07:06:09;;;;;;;8.70;5.25;;;896.70;1433.60;;;;;;5074315;28;20032;-79
2021/06/29 07:08:35;;;;;;;10.68;4.10;;;896.90;1408.00;;;;;;5074995;28;20024;-80
2021/06/29 07:11:02;;;;;;;6.53;4.35;;;921.60;1433.60;;;;;;5072279;28;20024;-87
2021/06/29 07:13:28;;;;;;;7.93;4.72;;;921.60;1382.40;;;;;;5062254;28;20029;-80
2021/06/29 07:15:54;;;;;;;7.55;4.00;;;921.70;1382.40;;;;;;5075371;28;20051;-84
2021/06/29 07:18:20;;;;;;;7.43;4.15;;;921.60;1382.40;;;;;;5065679;28;20056;-84
2021/06/29 07:20:46;;;;;;;11.23;4.50;;;896.90;1356.80;;;;;;5059755;28;20025;-78
2021/06/29 07:23:13;;;;;;;7.93;4.00;;;896.60;1331.20;;;;;;5076457;28;20032;-86
2021/06/29 07:25:40;;;;;;;7.45;3.78;;;896.50;1356.80;;;;;;5059277;28;20044;-88
2021/06/29 07:28:07;;;;;;;10.25;3.95;;;896.60;1356.80;;;;;;5076445;28;20533;-87
2021/06/29 07:30:34;;;;;;;5.40;3.80;;;896.50;1331.20;;;;;;5079530;28;20540;-87
2021/06/29 07:32:59;;;;;;;5.13;4.43;;;896.70;1331.20;;;;;;5074513;28;20021;-86
2021/06/29 07:35:27;;;;;;;5.60;4.22;;;921.60;1356.80;;;;;;5074955;28;20110;-87
2021/06/29 07:37:54;;;;;;;6.25;4.30;;;921.60;1331.20;;;;;;5070363;28;20555;-87
2021/06/29 07:40:20;;;;;;;7.50;4.13;;;921.70;1331.20;;;;;;5077073;28;20031;-87
2021/06/29 07:42:45;;;;;;;4.95;3.63;;;922.00;1331.20;;;;;;5065057;28;20020;-86
2021/06/29 07:45:12;;;;;;;12.85;4.22;;;922.00;1305.60;;;;;;5074699;28;20036;-85
2021/06/29 07:47:38;;;;;;;6.88;3.85;;;922.10;1305.60;;;;;;5083363;28;20035;-86
2021/06/29 07:50:06;;;;;;;5.25;3.88;;;922.40;1280.00;;;;;;5070455;28;20020;-87
2021/06/29 07:52:32;;;;;;;4.90;3.78;;;922.40;1305.60;;;;;;5074631;28;20085;-89
2021/06/29 07:54:57;;;;;;;6.20;4.00;;;922.20;1280.00;;;;;;5056505;28;20471;-87
2021/06/29 07:57:23;;;;;;;5.38;3.70;;;922.30;1280.00;;;;;;5085401;28;20032;-87
2021/06/29 07:59:49;;;;;;;7.57;5.60;;;922.20;1280.00;;;;;;5067742;28;20796;-84
2021/06/29 08:02:15;;;;;;;8.00;4.53;;;947.20;1254.40;;;;;;5084515;28;20040;-85
2021/06/29 08:04:42;;;;;;;8.15;4.18;;;947.20;1254.40;;;;;;5066323;28;20031;-84
2021/06/29 08:07:08;;;;;;;9.65;4.68;;;947.40;1254.40;;;;;;5065049;28;20118;-84
2021/06/29 08:09:34;;;;;;;5.18;4.25;;;947.70;1254.40;;;;;;5084169;28;20719;-82
2021/06/29 08:11:59;;;;;;;6.20;4.00;;;947.90;1228.80;;;;;;5081603;28;20062;-82
2021/06/29 08:14:25;;;;;;;7.28;4.45;;;947.80;1228.80;;;;;;5064965;28;20020;-83
2021/06/29 08:16:51;;;;;;;5.95;4.10;;;972.80;1254.40;;;;;;5067770;28;20030;-83
2021/06/29 08:19:17;;;;;;;5.78;3.95;;;972.90;1254.40;;;;;;5079038;28;20484;-84
2021/06/29 08:21:43;;;;;;;4.80;3.97;;;972.80;1254.40;;;;;;5088512;28;20508;-83
2021/06/29 08:24:09;;;;;;;5.32;4.60;;;972.90;1254.40;;;;;;5085356;28;20035;-85
2021/06/29 08:26:34;;;;;;;5.50;4.40;;;973.10;1228.80;;;;;;5065081;28;20043;-83
2021/06/29 08:29:00;;;;;;;5.38;4.40;;;973.10;1228.80;;;;;;5081026;28;20162;-83
2021/06/29 08:31:26;;;;;;;7.60;5.40;;;973.30;1228.80;;;;;;5068346;28;20062;-84
2021/06/29 08:33:55;;;;;;;8.18;4.18;;;973.70;1203.20;;;;;;5071318;28;20089;-84
2021/06/29 08:36:21;;;;;;;9.05;4.15;;;998.40;1228.80;;;;;;5078530;28;20038;-81
2021/06/29 08:38:48;;;;;;;5.03;4.50;;;998.40;1203.20;;;;;;5060049;28;20380;-84
2021/06/29 08:41:15;;;;;;;6.95;4.30;;;998.40;1228.80;;;;;;5068404;28;20039;-84
2021/06/29 08:43:41;;;;;;;7.55;4.32;;;998.40;1203.20;;;;;;5062742;28;20479;-80
2021/06/29 08:46:08;;;;;;;7.80;5.85;;;998.40;1203.20;;;;;;5077778;28;20077;-84
2021/06/29 08:48:34;;;;;;;5.95;5.00;;;998.80;1203.20;;;;;;5063760;28;20482;-85
2021/06/29 08:51:04;;;;;;;8.50;4.78;;;998.90;1203.20;;;;;;5083401;28;20532;-84
2021/06/29 08:53:31;;;;;;;6.60;4.85;;;999.00;1177.60;;;;;;5060769;28;20035;-83
2021/06/29 08:55:58;;;;;;;5.65;4.65;;;999.30;1177.60;;;;;;5087041;28;20032;-84
2021/06/29 08:58:25;;;;;;;7.57;4.63;;;1024.00;1177.60;;;;;;5076112;28;20028;-80
2021/06/29 09:00:52;;;;;;;9.35;5.82;;;1024.10;1152.00;;;;;;5064850;28;20466;-84
2021/06/29 09:03:18;;;;;;;5.05;4.13;;;1024.40;1152.00;;;;;;5080538;28;20475;-84
2021/06/29 09:05:49;;;;;;;8.50;5.10;;;1024.50;1126.40;;;;;;5080022;28;20069;-79
2021/06/29 09:08:18;;;;;;;5.22;4.68;;;1024.70;1126.40;;;;;;5069529;28;20071;-83
2021/06/29 09:11:13;;;;;;;6.43;5.20;;;1024.70;1126.40;;;;;;5064266;28;20028;-82
2021/06/29 09:13:40;;;;;;;5.80;4.63;;;1024.70;1126.40;;;;;;5060892;28;20047;-81
2021/06/29 09:16:07;;;;;;;7.68;6.60;;;1049.60;1152.00;;;;;;5078973;28;20031;-82
2021/06/29 09:18:35;;;;;;;12.77;5.30;;;1049.90;1126.40;;;;;;5084774;28;20028;-82
2021/06/29 09:21:03;;;;;;;9.30;4.75;;;1049.90;1126.40;;;;;;5074805;28;20028;-85
2021/06/29 09:23:41;;;;;;;6.55;4.88;;;1050.30;1126.40;;;;;;5081885;28;20894;-83
2021/06/29 09:26:07;;;;;;;5.70;4.90;;;1075.20;1100.80;;;;;;5064636;28;20078;-83
2021/06/29 09:28:36;;;;;;;6.07;4.90;;;1075.30;1100.80;;;;;;5072605;28;20059;-83
2021/06/29 09:31:11;;;;;;;7.30;5.20;;;1075.30;1100.80;;;;;;5056213;28;20017;-82
2021/06/29 09:33:50;;;;;;;5.63;4.70;;;1075.50;1075.20;;;;;;5071757;28;20021;-82
2021/06/29 09:36:18;;;;;;;7.18;5.07;;;1075.60;1075.20;;;;;;5053244;28;20045;-82
2021/06/29 09:38:46;;;;;;;6.47;5.78;;;1076.00;1075.20;;;;;;5067960;28;20437;-81
2021/06/29 09:41:25;;;;;;;9.30;5.47;;;1076.00;1049.60;;;;;;5091227;28;20111;-83
2021/06/29 09:43:54;;;;;;;8.48;5.68;;;1100.80;1075.20;;;;;;5100108;28;20035;-82
2021/06/29 09:46:24;;;;;;;9.00;5.80;;;1100.80;1075.20;;;;;;5093296;28;20028;-83
2021/06/29 09:48:59;;;;;;;6.75;4.93;;;1100.80;1075.20;;;;;;5074303;28;20023;-82
2021/06/29 09:51:27;;;;;;;9.45;4.93;;;1101.30;1049.60;;;;;;5078243;28;20112;-84
2021/06/29 09:53:55;;;;;;;6.72;4.85;;;1076.10;1049.60;;;;;;5081973;28;20020;-83
2021/06/29 09:56:24;;;;;;;13.48;5.57;;;1100.90;1075.20;;;;;;5078775;28;20513;-82
2021/06/29 09:58:54;;;;;;;6.95;5.45;;;1101.00;1075.20;;;;;;5079521;28;20036;-84
2021/06/29 10:01:26;;;;;;;7.75;5.20;;;1101.30;1075.20;;;;;;5063354;28;20120;-82
2021/06/29 10:03:55;;;;;;;8.00;5.60;;;1101.10;1075.20;;;;;;5062470;28;20056;-82
2021/06/29 10:06:28;;;;;;;7.00;5.93;;;1101.40;1049.60;;;;;;5068390;28;20024;-84
2021/06/29 10:09:03;;;;;;;8.32;5.70;;;1101.70;1049.60;;;;;;5080050;28;20060;-85
2021/06/29 10:11:33;;;;;;;;;;;1101.70;1049.60;;;;;;5073807;28;20493;-81
2021/06/29 10:14:04;;;;;;;8.02;5.28;;;1126.50;1049.60;;;;;;5086739;28;20302;-79
2021/06/29 10:16:32;;;;;;;7.07;5.43;;;1101.70;1049.60;;;;;;5085382;28;20024;-81
2021/06/29 10:21:27;;;;;;;8.00;5.90;;;1126.50;1049.60;;;;;;5084510;28;20051;-79
2021/06/29 10:23:56;;;;;;;8.48;5.65;;;1126.60;1049.60;;;;;;5083260;28;20025;-79
2021/06/29 10:26:23;;;;;;;9.05;6.40;;;1126.90;1049.60;;;;;;5062952;28;20389;-80
2021/06/29 10:28:51;;;;;;;8.95;6.38;;;1126.50;1049.60;;;;;;5066344;28;20017;-80
2021/06/29 10:31:24;;;;;;;6.95;5.10;;;1126.60;1049.60;;;;;;5066330;28;20372;-80
2021/06/29 10:33:52;;;;;;;7.55;5.88;;;1127.00;1024.00;;;;;;5064254;28;20020;-80
2021/06/29 10:36:20;;;;;;;8.57;5.45;;;1126.90;1049.60;;;;;;5064318;28;20024;-80
2021/06/29 10:38:46;;;;;;;10.95;6.53;;;1127.10;1024.00;;;;;;5063596;28;20044;-80
2021/06/29 10:41:12;;;;;;;9.60;6.35;;;1152.00;1024.00;;;;;;5064662;28;20024;-80
2021/06/29 10:43:41;;;;;;;12.38;7.53;;;1152.30;998.40;;;;;;5060900;28;20827;-78
2021/06/29 10:46:13;;;;;;;9.77;6.22;;;1152.70;1024.00;;;;;;5064073;28;20494;-78
2021/06/29 10:48:41;;;;;;;9.35;7.00;;;1152.00;1024.00;;;;;;5064787;28;20028;-78
2021/06/29 10:51:09;;;;;;;8.10;7.40;;;1127.30;1024.00;;;;;;5067116;28;20487;-77
2021/06/29 10:53:44;;;;;;;8.35;7.03;;;1152.30;1024.00;;;;;;5059041;28;20124;-77
2021/06/29 10:56:16;;;;;;;8.50;7.55;;;1152.00;998.40;;;;;;5067707;28;20035;-78
2021/06/29 10:58:47;;;;;;;10.85;8.40;;;1152.00;998.40;;;;;;5064573;28;20049;-80
2021/06/29 11:01:34;;;;;;;8.20;7.43;;;1152.00;1024.00;;;;;;5062838;28;20369;-81
2021/06/29 11:04:03;;;;;;;10.07;7.88;;;1152.70;998.40;;;;;;5066481;28;20386;-80
2021/06/29 11:06:32;;;;;;;10.85;7.70;;;1152.30;1024.00;;;;;;5069489;28;20024;-81
2021/06/29 11:08:59;;;;;;;13.95;12.52;;;1127.00;1024.00;;;;;;5068866;28;20044;-81
2021/06/29 11:11:27;;;;;;;11.93;10.70;;;1127.20;1024.00;;;;;;5062248;28;20039;-81
2021/06/29 11:13:52;;;;;;;18.25;16.25;;;1152.50;1024.00;;;;;;5063232;28;20021;-80
2021/06/29 11:16:38;;;;;;;8.35;7.53;;;1152.50;1024.00;;;;;;5062230;28;20025;-80
2021/06/29 11:19:04;;;;;;;17.90;14.13;;;1152.30;1024.00;;;;;;5063993;28;20028;-80
2021/06/29 11:21:30;;;;;;;11.80;9.02;;;1152.80;998.40;;;;;;5058737;28;20036;-82
2021/06/29 11:23:56;;;;;;;9.38;7.75;;;1177.60;998.40;;;;;;5058160;28;20499;-81
2021/06/29 11:26:24;;;;;;;11.50;8.32;;;1178.20;972.80;;;;;;5059321;28;20060;-81
2021/06/29 11:28:52;;;;;;;11.02;10.02;;;1178.40;972.80;;;;;;5058512;28;20061;-82
2021/06/29 11:31:20;;;;;;;9.68;8.60;;;1178.40;972.80;;;;;;5065187;28;20024;-82
2021/06/29 11:33:59;;;;;;;10.95;8.90;;;1178.20;972.80;;;;;;5062053;28;20029;-81
2021/06/29 11:36:37;;;;;;;12.18;9.75;;;1203.30;972.80;;;;;;5060616;28;20086;-81
2021/06/29 11:39:18;;;;;;;9.88;8.70;;;1203.30;972.80;;;;;;5067843;28;20090;-82
2021/06/29 11:41:57;;;;;;;8.57;7.68;;;1203.40;972.80;;;;;;5069749;28;20024;-81
2021/06/29 11:44:24;;;;;;;8.07;7.25;;;1203.40;947.20;;;;;;5056175;28;20384;-81
2021/06/29 11:47:14;;;;;;;9.88;7.78;;;1203.30;972.80;;;;;;5056051;28;20067;-81
2021/06/29 11:49:49;;;;;;;8.45;7.63;;;1203.40;972.80;;;;;;5065118;28;20055;-80
2021/06/29 11:52:16;;;;;;;18.70;16.70;;;1203.80;947.20;;;;;;5064667;28;20476;-82
2021/06/29 11:54:49;;;;;;;10.63;7.85;;;1203.80;972.80;;;;;;5057490;28;20030;-81
2021/06/29 11:57:24;;;;;;;12.98;10.65;;;1203.30;972.80;;;;;;5062572;28;20029;-81
2021/06/29 11:59:52;;;;;;;14.73;13.15;;;1203.70;947.20;;;;;;5061130;28;20103;-82
2021/06/29 12:02:23;;;;;;;13.48;11.32;;;1203.50;947.20;;;;;;5065608;28;20052;-82
2021/06/29 12:05:00;;;;;;;9.40;8.32;;;1203.80;947.20;;;;;;5061904;28;20029;-85
2021/06/29 12:07:35;;;;;;;10.95;9.77;;;1203.30;947.20;;;;;;5060440;28;20055;-84
2021/06/29 12:10:20;;;;;;;9.40;8.48;;;1203.80;921.60;;;;;;5059814;28;20020;-84
2021/06/29 12:12:47;;;;;;;;;;;1203.50;921.60;;;;;;5064126;28;20458;-85
2021/06/29 12:15:20;;;;;;;10.73;8.27;;;1203.80;947.20;;;;;;5057539;28;19940;-84